Share

Gage, OK

Barnes - Farm (KOKGAGE2) Elev 2218 ft | 36.28 °N, 99.80 °W | Change Station

Current weather conditions updated 3 seconds ago

Clear
Clear
71.5 °F
Feels Like 77 °F
N
15.0
Wind Variable Wind from SSE
Gusts 15.0 mph
Sunrise 7:01 AM
Sunset 8:15 PM
Moon Waning Gibbous

Tomorrow is forecast to be Warmer than today.

Pressure 30.04 in
Visibility 10.0 miles
Clouds Clear
Heat Index 77 °F
Dew Point 47 °F
Humidity 41%
Rainfall 0.00 in
Snow Depth Not available.
UV 1.3 out of 16
Pollen 11.00 out of 12
Air Quality Not available.
Flu Activity Regional
METAR KPYX 182215Z AUTO 17020G26KT 10SM CLR 21/06 A3004 RMK AO2 T02110060

More Conditions Fewer Conditions

Pressure 30.04 in
Visibility 10.0 miles
Clouds Clear
Heat Index 77 °F
Dew Point 47 °F
Humidity 41%
Rainfall 0.00 in
Snow Depth Not available.
UV 1.3 out of 16
Pollen 11.00 out of 12
Air Quality Not available.
Flu Activity Regional
METAR KPYX 182215Z AUTO 17020G26KT 10SM CLR 21/06 A3004 RMK AO2 T02110060

More Conditions Fewer Conditions

10-Day Weather Forecast

Almanac

Astronomy

Apr. 18, 2014 Rise Set
Actual Time 7:01 AM CDT 8:15 PM CDT
Civil Twilight 6:34 AM CDT 8:42 PM CDT
Nautical Twilight 6:03 AM CDT 9:14 PM CDT
Astronomical Twilight 5:29 AM CDT 9:47 PM CDT
Moon 11:58 PM CDT 9:28 AM CDT
Length of Visible Light 14h 07m
Length of Day
13h 14m
Tomorrow will be 2m 9s longer.
Waning Gibbous, 85% of the Moon is Illuminated
Today
Waning Gibbous
Apr 22
Last Quarter
Apr 29
New
May 6
First Quarter
May 14
Full

Today's Extremes

State Highs State Lows

Community

  • Spring Chickadee
    Spring Chickadee
  • What's for Lunch?
    What's for Lunch?
  • SUNRISE THROUGH THE TREES.
    SUNRISE THROUGH THE TREES.
  • Dog Wood Blossoms
    Dog Wood Blossoms
  • Morning Light
    Morning Light

WunderPhotos

Upload Photos

1,702,521 photos uploaded!

WunderBlogs® & News

Nearby

Snow Depth

Station Depth Elevation
No new snow has been reported.

Coastal Water Temperatures

Place Temperature
No Stations Reporting

Earthquake Activity

City Distance Mag. Time & Date
Medford, Oklahoma 113 miles 3.0 5:38 PM CDT
2014-04-12
Minimum magnitude displayed is 2.5.

Nearby Weather Stations

Station Location Temp. Heat Index Dew Point Humidity Wind Precip. Elev Updated Type
Barnes - Farm, Gage, OK 71.5 °F 77 °F 47 °F 41% SSE  at  15.0 mph 0.00 in / hr 2218 ft 5:28 PM CDT Rapid Fire
HADS WOLF CREEK AT DAM NEAR FORT SUPP OK, Fort Supply, OK 67 °F - 44 °F 44% South  at  11 mph 0.00 in / hr 2075 ft 4:00 PM CDT MADIS

Show More Stations Show Fewer Stations

What do you think?

We're not finished. Please let us know what you like, what you don't like, and what you are still missing.